createdAt,value
2019-03-27T00:02:32.392Z,6.00
2019-03-27T00:05:38.068Z,6.10
2019-03-27T00:08:46.622Z,6.10
2019-03-27T00:11:52.191Z,6.10
2019-03-27T00:15:11.606Z,6.00
2019-03-27T00:18:06.289Z,6.00
2019-03-27T00:21:12.136Z,5.90
2019-03-27T00:24:20.537Z,5.90
2019-03-27T00:27:26.245Z,5.90
2019-03-27T00:30:32.126Z,5.90
2019-03-27T00:33:39.305Z,6.00
2019-03-27T00:36:45.387Z,6.00
2019-03-27T00:39:54.146Z,6.00
2019-03-27T00:43:01.245Z,6.00
2019-03-27T00:46:06.756Z,6.00
2019-03-27T00:49:12.487Z,6.00
2019-03-27T00:52:18.057Z,5.90
2019-03-27T00:55:23.600Z,5.90
2019-03-27T00:58:29.355Z,6.00
2019-03-27T01:01:35.168Z,6.10
2019-03-27T01:04:40.472Z,6.10
2019-03-27T01:07:46.285Z,6.20
2019-03-27T01:10:51.991Z,6.20
2019-03-27T01:13:57.482Z,6.20
2019-03-27T01:17:02.898Z,6.20
2019-03-27T01:20:08.457Z,6.20
2019-03-27T01:23:14.284Z,6.20
2019-03-27T01:26:21.676Z,6.30
2019-03-27T01:29:27.545Z,6.20
2019-03-27T01:32:33.056Z,6.20
2019-03-27T01:35:38.276Z,6.30
2019-03-27T01:38:43.953Z,6.20
2019-03-27T01:41:49.781Z,6.20
2019-03-27T01:44:55.045Z,6.30
2019-03-27T01:48:00.504Z,6.10
2019-03-27T01:51:06.205Z,6.10
2019-03-27T01:54:11.709Z,6.00
2019-03-27T01:57:17.073Z,6.00
2019-03-27T02:00:22.931Z,5.90
2019-03-27T02:03:28.453Z,5.90
2019-03-27T02:06:34.763Z,5.80
2019-03-27T02:09:40.607Z,5.70
2019-03-27T02:12:46.070Z,5.70
2019-03-27T02:15:51.610Z,5.60
2019-03-27T02:18:57.376Z,5.50
2019-03-27T02:22:02.917Z,5.60
2019-03-27T02:25:08.850Z,5.60
2019-03-27T02:28:14.229Z,5.60
2019-03-27T02:31:20.029Z,5.60
2019-03-27T02:34:25.770Z,5.70
2019-03-27T02:37:31.326Z,5.70
2019-03-27T02:40:36.812Z,5.70
2019-03-27T02:43:42.196Z,5.70
2019-03-27T02:46:47.692Z,5.70
2019-03-27T02:50:00.548Z,5.70
2019-03-27T02:53:06.195Z,5.70
2019-03-27T02:56:11.769Z,5.60
2019-03-27T02:59:17.294Z,5.60
2019-03-27T03:02:22.687Z,5.50
2019-03-27T03:05:28.198Z,5.50
2019-03-27T03:08:33.588Z,5.50
2019-03-27T03:11:39.313Z,5.60
2019-03-27T03:14:45.083Z,5.60
2019-03-27T03:17:50.795Z,5.70
2019-03-27T03:20:56.554Z,5.60
2019-03-27T03:24:02.249Z,5.60
2019-03-27T03:27:07.870Z,5.40
2019-03-27T03:30:13.736Z,5.30
2019-03-27T03:33:19.455Z,5.20
2019-03-27T03:36:25.048Z,5.30
2019-03-27T03:39:30.482Z,5.30
2019-03-27T03:42:36.080Z,5.40
2019-03-27T03:45:41.785Z,5.30
2019-03-27T03:48:47.357Z,5.30
2019-03-27T03:51:52.911Z,5.40
2019-03-27T03:54:58.249Z,5.50
2019-03-27T03:58:04.025Z,5.40
2019-03-27T04:01:10.533Z,5.40
2019-03-27T04:04:17.518Z,5.40
2019-03-27T04:07:23.110Z,5.30
2019-03-27T04:10:28.685Z,5.20
2019-03-27T04:13:34.422Z,5.10
2019-03-27T04:16:39.987Z,5.20
2019-03-27T04:19:45.733Z,5.20
2019-03-27T04:22:51.304Z,5.20
2019-03-27T04:26:08.756Z,5.30
2019-03-27T04:29:03.840Z,5.40
2019-03-27T04:32:09.566Z,5.40
2019-03-27T04:35:15.153Z,5.50
2019-03-27T04:38:20.663Z,5.50
2019-03-27T04:41:26.453Z,5.50
2019-03-27T04:44:31.968Z,5.50
2019-03-27T04:47:37.937Z,5.40
2019-03-27T04:50:43.525Z,5.30
2019-03-27T04:53:49.035Z,5.30
2019-03-27T04:56:54.411Z,5.20
2019-03-27T05:00:00.397Z,5.20
2019-03-27T05:03:06.150Z,5.20
2019-03-27T05:06:11.960Z,5.20
2019-03-27T05:09:17.644Z,5.20
2019-03-27T05:12:23.153Z,5.30
2019-03-27T05:15:28.745Z,5.30
2019-03-27T05:18:34.467Z,5.30
2019-03-27T05:21:40.032Z,5.30
2019-03-27T05:24:45.464Z,5.40
2019-03-27T05:27:50.956Z,5.40
2019-03-27T05:30:56.673Z,5.50
2019-03-27T05:34:02.267Z,5.50
2019-03-27T05:37:07.769Z,5.70
2019-03-27T05:40:13.476Z,5.70
2019-03-27T05:43:18.870Z,5.80
2019-03-27T05:46:26.560Z,5.90
2019-03-27T05:49:31.827Z,5.90
2019-03-27T05:52:37.422Z,5.90
2019-03-27T05:55:43.011Z,6.00
2019-03-27T05:58:48.512Z,6.10
2019-03-27T06:01:54.245Z,6.20
2019-03-27T06:04:59.816Z,6.30
2019-03-27T06:08:05.319Z,6.30
2019-03-27T06:11:10.725Z,6.30
2019-03-27T06:14:16.433Z,6.40
2019-03-27T06:17:22.230Z,6.50
2019-03-27T06:20:27.726Z,6.70
2019-03-27T06:23:33.337Z,6.80
2019-03-27T06:26:39.266Z,6.90
2019-03-27T06:29:44.837Z,7.00
2019-03-27T06:32:50.381Z,7.00
2019-03-27T06:35:56.198Z,7.10
2019-03-27T06:39:01.870Z,7.20
2019-03-27T06:42:07.579Z,7.30
2019-03-27T06:45:13.257Z,7.40
2019-03-27T06:48:26.120Z,7.40
2019-03-27T06:51:39.802Z,7.50
2019-03-27T06:54:37.087Z,7.50
2019-03-27T06:57:42.752Z,7.70
2019-03-27T07:00:48.162Z,7.80
2019-03-27T07:03:53.864Z,7.90
2019-03-27T07:06:59.644Z,8.00
2019-03-27T07:10:05.497Z,8.10
2019-03-27T07:13:11.370Z,8.20
2019-03-27T07:16:16.878Z,8.20
2019-03-27T07:19:22.296Z,8.30
2019-03-27T07:22:28.112Z,8.30
2019-03-27T07:25:33.771Z,8.40
2019-03-27T07:28:39.341Z,8.50
2019-03-27T07:31:44.881Z,8.60
2019-03-27T07:34:50.966Z,8.80
2019-03-27T07:37:56.606Z,8.90
2019-03-27T07:41:03.359Z,9.10
2019-03-27T07:44:13.183Z,9.40
2019-03-27T07:47:18.556Z,9.60
2019-03-27T07:50:24.192Z,10.00
2019-03-27T07:53:29.680Z,10.20
2019-03-27T07:56:35.419Z,10.50
2019-03-27T07:59:41.160Z,10.70
2019-03-27T08:02:46.532Z,10.90
2019-03-27T08:05:52.309Z,11.10
2019-03-27T08:08:57.963Z,11.20
2019-03-27T08:12:03.845Z,11.20
2019-03-27T08:15:10.967Z,11.30
2019-03-27T08:18:16.433Z,11.50
2019-03-27T08:21:21.945Z,11.80
2019-03-27T08:24:27.334Z,12.10
2019-03-27T08:27:32.888Z,12.40
2019-03-27T08:30:38.644Z,12.60
2019-03-27T08:33:44.033Z,12.80
2019-03-27T08:36:49.460Z,12.90
2019-03-27T08:39:54.978Z,12.90
2019-03-27T08:43:00.729Z,13.10
2019-03-27T08:46:06.262Z,13.50
2019-03-27T08:49:22.018Z,14.00
2019-03-27T08:52:19.257Z,14.90
2019-03-27T08:55:24.780Z,15.70
2019-03-27T08:58:30.241Z,16.50
2019-03-27T09:01:35.882Z,17.10
2019-03-27T09:04:41.460Z,17.80
2019-03-27T09:07:46.983Z,18.50
2019-03-27T09:10:52.738Z,19.10
2019-03-27T09:13:58.515Z,19.80
2019-03-27T09:17:04.133Z,21.00
2019-03-27T09:20:09.791Z,22.20
2019-03-27T09:23:15.535Z,22.60
2019-03-27T09:26:21.232Z,23.90
2019-03-27T09:29:26.631Z,25.30
2019-03-27T09:32:33.688Z,25.90
2019-03-27T09:35:39.237Z,26.40
2019-03-27T09:38:44.687Z,26.70
2019-03-27T09:41:50.214Z,25.30
2019-03-27T09:44:55.741Z,23.50
2019-03-27T09:48:03.198Z,22.20
2019-03-27T09:51:08.694Z,21.10
2019-03-27T09:54:14.220Z,20.00
2019-03-27T09:57:19.686Z,19.00
2019-03-27T10:00:55.965Z,18.20
2019-03-27T10:04:01.672Z,17.80
2019-03-27T10:07:07.190Z,17.40
2019-03-27T10:10:13.036Z,17.10
2019-03-27T10:13:18.897Z,16.40
2019-03-27T10:16:27.189Z,15.90
2019-03-27T10:19:32.865Z,15.40
2019-03-27T10:22:39.467Z,15.10
2019-03-27T10:25:45.040Z,15.50
2019-03-27T10:28:50.425Z,15.90
2019-03-27T10:31:56.233Z,15.80
2019-03-27T10:35:02.157Z,15.20
2019-03-27T10:38:09.483Z,14.60
2019-03-27T10:41:15.289Z,14.20
2019-03-27T10:44:21.137Z,13.90
2019-03-27T10:47:27.161Z,13.50
2019-03-27T10:50:32.886Z,13.40
2019-03-27T10:53:38.373Z,13.20
2019-03-27T10:56:43.839Z,13.00
2019-03-27T10:59:50.722Z,12.80
2019-03-27T11:02:56.587Z,12.70
2019-03-27T11:06:01.933Z,12.60
2019-03-27T11:09:10.144Z,12.60
2019-03-27T11:12:16.615Z,12.60
2019-03-27T11:15:22.294Z,12.60
2019-03-27T11:18:27.853Z,12.70
2019-03-27T11:21:33.752Z,12.70
2019-03-27T11:24:39.788Z,12.60
2019-03-27T11:27:46.841Z,12.60
2019-03-27T11:30:55.266Z,12.60
2019-03-27T11:34:00.809Z,12.70
2019-03-27T11:37:06.400Z,12.80
2019-03-27T11:40:12.522Z,12.90
2019-03-27T11:43:17.908Z,13.00
2019-03-27T11:46:25.054Z,13.00
2019-03-27T11:49:31.364Z,13.20
2019-03-27T11:52:37.138Z,13.20
2019-03-27T11:55:42.761Z,13.10
2019-03-27T11:58:48.505Z,13.00
2019-03-27T12:01:54.312Z,12.70
2019-03-27T12:05:00.024Z,12.30
2019-03-27T12:08:06.019Z,12.10
2019-03-27T12:11:11.626Z,11.90
2019-03-27T12:14:17.210Z,11.50
2019-03-27T12:17:23.036Z,11.50
2019-03-27T12:20:28.584Z,11.50
2019-03-27T12:23:34.221Z,11.50
2019-03-27T12:26:46.445Z,11.40
2019-03-27T12:29:52.101Z,11.50
2019-03-27T12:32:57.669Z,11.50
2019-03-27T12:36:03.205Z,11.50
2019-03-27T12:39:09.514Z,11.50
2019-03-27T12:42:16.209Z,11.40
2019-03-27T12:45:21.826Z,11.30
2019-03-27T12:48:27.334Z,11.40
2019-03-27T12:51:32.933Z,11.60
2019-03-27T12:54:44.035Z,11.60
2019-03-27T12:57:45.953Z,11.70
2019-03-27T13:00:51.421Z,11.90
2019-03-27T13:03:57.172Z,12.10
2019-03-27T13:07:03.111Z,12.10
2019-03-27T13:10:08.892Z,12.30
2019-03-27T13:13:14.457Z,12.50
2019-03-27T13:16:30.813Z,12.40
2019-03-27T13:19:36.212Z,12.80
2019-03-27T13:22:41.741Z,13.50
2019-03-27T13:25:47.681Z,13.30
2019-03-27T13:28:53.290Z,12.80
2019-03-27T13:31:58.706Z,12.60
2019-03-27T13:35:04.481Z,12.40
2019-03-27T13:38:10.214Z,11.90
2019-03-27T13:41:15.822Z,12.00
2019-03-27T13:44:21.714Z,11.90
2019-03-27T13:47:27.116Z,11.70
2019-03-27T13:50:32.661Z,11.70
2019-03-27T13:53:46.616Z,11.90
2019-03-27T13:56:45.899Z,12.20
2019-03-27T13:59:51.625Z,12.40
2019-03-27T14:02:57.476Z,12.30
2019-03-27T14:06:03.099Z,12.10
2019-03-27T14:09:09.504Z,12.10
2019-03-27T14:12:14.889Z,12.30
2019-03-27T14:15:21.064Z,12.40
2019-03-27T14:18:26.522Z,12.30
2019-03-27T14:21:32.091Z,12.10
2019-03-27T14:24:37.750Z,11.80
2019-03-27T14:27:45.394Z,11.80
2019-03-27T14:30:57.634Z,11.60
2019-03-27T14:34:03.188Z,11.60
2019-03-27T14:37:11.134Z,11.50
2019-03-27T14:40:16.874Z,11.60
2019-03-27T14:43:26.980Z,11.60
2019-03-27T14:46:34.502Z,11.70
2019-03-27T14:49:43.128Z,11.80
2019-03-27T14:52:48.985Z,11.80
2019-03-27T14:55:54.844Z,11.70
2019-03-27T14:59:00.586Z,11.50
2019-03-27T15:02:06.355Z,11.40
2019-03-27T15:05:12.639Z,11.40
2019-03-27T15:08:18.203Z,11.60
2019-03-27T15:11:24.303Z,11.70
2019-03-27T15:14:29.848Z,11.80
2019-03-27T15:17:35.327Z,11.80
2019-03-27T15:20:41.334Z,11.80
2019-03-27T15:23:46.984Z,11.70
2019-03-27T15:26:52.570Z,11.80
2019-03-27T15:29:58.105Z,11.70
2019-03-27T15:33:03.681Z,11.70
2019-03-27T15:36:09.935Z,11.60
2019-03-27T15:39:15.618Z,11.60
2019-03-27T15:42:21.177Z,11.50
2019-03-27T15:45:26.822Z,11.60
2019-03-27T15:48:32.265Z,11.50
2019-03-27T15:51:37.849Z,11.50
2019-03-27T15:54:43.336Z,11.50
2019-03-27T15:57:54.648Z,11.40
2019-03-27T16:01:01.208Z,11.30
2019-03-27T16:04:07.013Z,11.10
2019-03-27T16:07:12.543Z,10.90
2019-03-27T16:10:18.536Z,11.00
2019-03-27T16:13:24.146Z,10.90
2019-03-27T16:16:30.044Z,11.00
2019-03-27T16:19:35.594Z,11.00
2019-03-27T16:22:50.367Z,11.00
2019-03-27T16:25:48.474Z,11.00
2019-03-27T16:28:53.903Z,11.00
2019-03-27T16:31:59.413Z,11.10
2019-03-27T16:35:05.180Z,11.10
2019-03-27T16:38:11.977Z,11.10
2019-03-27T16:41:17.934Z,11.10
2019-03-27T16:44:23.734Z,11.10
2019-03-27T16:47:29.537Z,11.10
2019-03-27T16:50:34.938Z,11.10
2019-03-27T16:53:40.281Z,11.00
2019-03-27T16:56:45.897Z,11.00
2019-03-27T16:59:51.819Z,11.00
2019-03-27T17:02:57.737Z,11.10
2019-03-27T17:06:03.530Z,10.90
2019-03-27T17:09:09.917Z,10.90
2019-03-27T17:12:15.467Z,11.00
2019-03-27T17:15:39.920Z,10.90
2019-03-27T17:18:45.448Z,10.90
2019-03-27T17:21:51.335Z,10.90
2019-03-27T17:24:56.992Z,10.90
2019-03-27T17:28:02.803Z,10.90
2019-03-27T17:31:08.404Z,10.80
2019-03-27T17:34:14.044Z,10.80
2019-03-27T17:37:19.641Z,10.80
2019-03-27T17:40:28.934Z,10.90
2019-03-27T17:43:34.343Z,10.90
2019-03-27T17:46:39.862Z,10.90
2019-03-27T17:49:46.664Z,10.80
2019-03-27T17:52:52.241Z,10.80
2019-03-27T17:55:57.833Z,10.70
2019-03-27T17:59:03.485Z,10.60
2019-03-27T18:02:08.951Z,10.60
2019-03-27T18:05:14.565Z,10.50
2019-03-27T18:08:21.241Z,10.50
2019-03-27T18:11:26.973Z,10.50
2019-03-27T18:14:32.520Z,10.40
2019-03-27T18:17:38.146Z,10.40
2019-03-27T18:20:44.674Z,10.40
2019-03-27T18:23:53.988Z,10.30
2019-03-27T18:26:59.551Z,10.30
2019-03-27T18:30:05.749Z,10.20
2019-03-27T18:33:11.264Z,10.10
2019-03-27T18:36:16.760Z,10.10
2019-03-27T18:39:22.383Z,10.10
2019-03-27T18:42:27.866Z,10.10
2019-03-27T18:45:35.033Z,10.00
2019-03-27T18:48:41.045Z,10.00
2019-03-27T18:51:46.823Z,10.00
2019-03-27T18:54:52.392Z,9.90
2019-03-27T18:58:00.506Z,9.90
2019-03-27T19:01:05.352Z,9.90
2019-03-27T19:04:10.837Z,9.80
2019-03-27T19:07:16.367Z,9.70
2019-03-27T19:10:21.964Z,9.70
2019-03-27T19:13:27.491Z,9.70
2019-03-27T19:16:33.073Z,9.60
2019-03-27T19:19:38.646Z,9.50
2019-03-27T19:22:44.150Z,9.50
2019-03-27T19:25:49.908Z,9.50
2019-03-27T19:28:55.502Z,9.40
2019-03-27T19:32:01.054Z,9.30
2019-03-27T19:35:06.965Z,9.20
2019-03-27T19:38:12.905Z,9.10
2019-03-27T19:41:18.892Z,9.10
2019-03-27T19:44:24.492Z,8.90
2019-03-27T19:47:30.462Z,8.90
2019-03-27T19:50:35.982Z,8.80
2019-03-27T19:53:41.973Z,8.70
2019-03-27T19:56:47.980Z,8.60
2019-03-27T19:59:53.495Z,8.50
2019-03-27T20:03:03.560Z,8.50
2019-03-27T20:06:10.436Z,8.40
2019-03-27T20:09:16.198Z,8.40
2019-03-27T20:12:21.916Z,8.30
2019-03-27T20:15:27.385Z,8.20
2019-03-27T20:18:32.915Z,8.20
2019-03-27T20:21:38.831Z,8.10
2019-03-27T20:24:44.211Z,8.10
2019-03-27T20:27:52.380Z,8.00
2019-03-27T20:30:58.317Z,8.00
2019-03-27T20:34:09.714Z,7.90
2019-03-27T20:37:17.814Z,7.80
2019-03-27T20:40:23.845Z,7.70
2019-03-27T20:43:29.689Z,7.60
2019-03-27T20:46:35.207Z,7.50
2019-03-27T20:49:51.893Z,7.50
2019-03-27T20:52:57.707Z,7.40
2019-03-27T20:56:03.741Z,7.30
2019-03-27T20:59:09.677Z,7.20
2019-03-27T21:02:15.351Z,7.10
2019-03-27T21:05:21.067Z,7.20
2019-03-27T21:08:26.619Z,7.00
2019-03-27T21:11:36.357Z,7.00
2019-03-27T21:14:43.297Z,7.00
2019-03-27T21:17:50.330Z,6.90
2019-03-27T21:20:57.742Z,6.80
2019-03-27T21:24:03.418Z,6.80
2019-03-27T21:27:09.217Z,6.80
2019-03-27T21:30:19.857Z,6.60
2019-03-27T21:33:27.678Z,6.60
2019-03-27T21:36:33.712Z,6.60
2019-03-27T21:39:40.042Z,6.60
2019-03-27T21:42:45.776Z,6.60
2019-03-27T21:45:51.464Z,6.50
2019-03-27T21:48:57.824Z,6.50
2019-03-27T21:52:04.275Z,6.30
2019-03-27T21:55:21.924Z,6.30
2019-03-27T21:58:17.731Z,6.20
2019-03-27T22:01:23.476Z,6.10
2019-03-27T22:04:29.332Z,6.00
2019-03-27T22:07:34.787Z,5.90
2019-03-27T22:10:40.355Z,6.00
2019-03-27T22:13:45.857Z,6.00
2019-03-27T22:16:51.223Z,5.90
2019-03-27T22:19:57.012Z,5.90
2019-03-27T22:23:02.763Z,6.00
2019-03-27T22:26:08.307Z,6.00
2019-03-27T22:29:32.493Z,6.00
2019-03-27T22:32:38.013Z,6.00
2019-03-27T22:35:43.566Z,6.00
2019-03-27T22:38:50.100Z,5.90
2019-03-27T22:41:55.703Z,5.90
2019-03-27T22:45:01.459Z,5.80
2019-03-27T22:48:06.968Z,5.80
2019-03-27T22:51:16.992Z,5.70
2019-03-27T22:54:22.636Z,5.60
2019-03-27T22:57:28.196Z,5.60
2019-03-27T23:00:50.133Z,5.50
2019-03-27T23:03:55.884Z,5.60
2019-03-27T23:07:01.434Z,5.60
2019-03-27T23:10:07.113Z,5.60
2019-03-27T23:13:12.764Z,5.50
2019-03-27T23:16:18.500Z,5.40
2019-03-27T23:19:24.251Z,5.40
2019-03-27T23:22:31.734Z,5.30
2019-03-27T23:25:39.973Z,5.30
2019-03-27T23:28:45.903Z,5.30
2019-03-27T23:31:51.451Z,5.30
2019-03-27T23:35:00.438Z,5.30
2019-03-27T23:38:06.225Z,5.30
2019-03-27T23:41:14.599Z,5.20
2019-03-27T23:44:20.382Z,5.10
2019-03-27T23:47:26.111Z,5.10
2019-03-27T23:50:31.609Z,5.10
2019-03-27T23:53:37.386Z,5.10
2019-03-27T23:56:45.693Z,5.00
2019-03-27T23:59:51.141Z,5.10
